sensor_id;sensor_type;location;lat;lon;timestamp;temperature;humidity
33077;DHT22;38790;51.964;5.924;2022-12-10T00:00:25;-1.90;99.90
33077;DHT22;38790;51.964;5.924;2022-12-10T00:02:51;-1.90;99.90
33077;DHT22;38790;51.964;5.924;2022-12-10T00:05:22;-1.90;99.90
33077;DHT22;38790;51.964;5.924;2022-12-10T00:07:48;-1.90;99.90
33077;DHT22;38790;51.964;5.924;2022-12-10T00:10:15;-2.00;99.90
33077;DHT22;38790;51.964;5.924;2022-12-10T00:12:41;-2.00;99.90
33077;DHT22;38790;51.964;5.924;2022-12-10T00:15:08;-1.90;99.90
33077;DHT22;38790;51.964;5.924;2022-12-10T00:17:34;-1.90;99.90
33077;DHT22;38790;51.964;5.924;2022-12-10T00:20:00;-1.90;99.90
33077;DHT22;38790;51.964;5.924;2022-12-10T00:22:30;-1.90;99.90
33077;DHT22;38790;51.964;5.924;2022-12-10T00:24:56;-1.90;99.90
33077;DHT22;38790;51.964;5.924;2022-12-10T00:27:22;-1.90;99.90
33077;DHT22;38790;51.964;5.924;2022-12-10T00:29:49;-1.90;99.90
33077;DHT22;38790;51.964;5.924;2022-12-10T00:32:15;-2.00;99.90
33077;DHT22;38790;51.964;5.924;2022-12-10T00:34:41;-2.00;99.90
33077;DHT22;38790;51.964;5.924;2022-12-10T00:37:07;-2.00;99.90
33077;DHT22;38790;51.964;5.924;2022-12-10T00:39:33;-1.90;99.90
33077;DHT22;38790;51.964;5.924;2022-12-10T00:41:59;-1.90;99.90
33077;DHT22;38790;51.964;5.924;2022-12-10T00:44:26;-2.00;99.90
33077;DHT22;38790;51.964;5.924;2022-12-10T00:46:52;-1.90;99.90
33077;DHT22;38790;51.964;5.924;2022-12-10T00:49:18;-1.90;99.90
33077;DHT22;38790;51.964;5.924;2022-12-10T00:51:44;-1.90;99.90
33077;DHT22;38790;51.964;5.924;2022-12-10T00:54:10;-1.90;99.90
33077;DHT22;38790;51.964;5.924;2022-12-10T00:56:37;-2.00;99.90
33077;DHT22;38790;51.964;5.924;2022-12-10T00:59:04;-2.00;99.90
33077;DHT22;38790;51.964;5.924;2022-12-10T01:01:33;-1.90;99.90
33077;DHT22;38790;51.964;5.924;2022-12-10T01:04:08;-2.00;99.90
33077;DHT22;38790;51.964;5.924;2022-12-10T01:06:44;-2.00;99.90
33077;DHT22;38790;51.964;5.924;2022-12-10T01:09:13;-2.00;99.90
33077;DHT22;38790;51.964;5.924;2022-12-10T01:11:41;-2.10;99.90
33077;DHT22;38790;51.964;5.924;2022-12-10T01:14:10;-2.10;99.90
33077;DHT22;38790;51.964;5.924;2022-12-10T01:16:37;-2.10;99.90
33077;DHT22;38790;51.964;5.924;2022-12-10T01:19:03;-2.10;99.90
33077;DHT22;38790;51.964;5.924;2022-12-10T01:21:29;-2.10;99.90
33077;DHT22;38790;51.964;5.924;2022-12-10T01:23:57;-2.10;99.90
33077;DHT22;38790;51.964;5.924;2022-12-10T01:26:26;-2.20;99.90
33077;DHT22;38790;51.964;5.924;2022-12-10T01:28:54;-2.10;99.90
33077;DHT22;38790;51.964;5.924;2022-12-10T01:31:24;-2.10;99.90
33077;DHT22;38790;51.964;5.924;2022-12-10T01:33:51;-2.10;99.90
33077;DHT22;38790;51.964;5.924;2022-12-10T01:36:26;-2.20;99.90
33077;DHT22;38790;51.964;5.924;2022-12-10T01:38:52;-2.20;99.90
33077;DHT22;38790;51.964;5.924;2022-12-10T01:41:27;-2.20;99.90
33077;DHT22;38790;51.964;5.924;2022-12-10T01:44:01;-2.20;99.90
33077;DHT22;38790;51.964;5.924;2022-12-10T01:46:48;-2.20;99.90
33077;DHT22;38790;51.964;5.924;2022-12-10T01:49:17;-2.20;99.90
33077;DHT22;38790;51.964;5.924;2022-12-10T01:51:46;-2.30;99.90
33077;DHT22;38790;51.964;5.924;2022-12-10T01:54:25;-2.20;99.90
33077;DHT22;38790;51.964;5.924;2022-12-10T01:59:46;-2.20;99.90
33077;DHT22;38790;51.964;5.924;2022-12-10T02:10:52;-2.30;99.90
33077;DHT22;38790;51.964;5.924;2022-12-10T02:13:45;-2.30;99.90
33077;DHT22;38790;51.964;5.924;2022-12-10T02:18:50;-2.30;99.90
33077;DHT22;38790;51.964;5.924;2022-12-10T02:21:32;-2.40;99.90
33077;DHT22;38790;51.964;5.924;2022-12-10T02:24:04;-2.40;99.90
33077;DHT22;38790;51.964;5.924;2022-12-10T02:29:24;-2.40;99.90
33077;DHT22;38790;51.964;5.924;2022-12-10T02:34:58;-2.40;99.90
33077;DHT22;38790;51.964;5.924;2022-12-10T02:37:33;-2.40;99.90
33077;DHT22;38790;51.964;5.924;2022-12-10T02:40:03;-2.40;99.90
33077;DHT22;38790;51.964;5.924;2022-12-10T02:42:34;-2.50;99.90
33077;DHT22;38790;51.964;5.924;2022-12-10T02:45:04;-2.40;99.90
33077;DHT22;38790;51.964;5.924;2022-12-10T02:47:31;-2.40;99.90
33077;DHT22;38790;51.964;5.924;2022-12-10T02:49:58;-2.40;99.90
33077;DHT22;38790;51.964;5.924;2022-12-10T02:52:25;-2.40;99.90
33077;DHT22;38790;51.964;5.924;2022-12-10T02:54:51;-2.40;99.90
33077;DHT22;38790;51.964;5.924;2022-12-10T02:57:32;-2.40;99.90
33077;DHT22;38790;51.964;5.924;2022-12-10T03:00:22;-2.40;99.90
33077;DHT22;38790;51.964;5.924;2022-12-10T03:08:51;-2.40;99.90
33077;DHT22;38790;51.964;5.924;2022-12-10T03:11:21;-2.40;99.90
33077;DHT22;38790;51.964;5.924;2022-12-10T03:14:05;-2.40;99.90
33077;DHT22;38790;51.964;5.924;2022-12-10T03:16:44;-2.40;99.90
33077;DHT22;38790;51.964;5.924;2022-12-10T03:19:13;-2.40;99.90
33077;DHT22;38790;51.964;5.924;2022-12-10T03:21:41;-2.40;99.90
33077;DHT22;38790;51.964;5.924;2022-12-10T03:24:11;-2.50;99.90
33077;DHT22;38790;51.964;5.924;2022-12-10T03:26:38;-2.50;99.90
33077;DHT22;38790;51.964;5.924;2022-12-10T03:29:22;-2.50;99.90
33077;DHT22;38790;51.964;5.924;2022-12-10T03:31:50;-2.50;99.90
33077;DHT22;38790;51.964;5.924;2022-12-10T03:34:18;-2.50;99.90
33077;DHT22;38790;51.964;5.924;2022-12-10T03:36:45;-2.50;99.90
33077;DHT22;38790;51.964;5.924;2022-12-10T03:39:12;-2.50;99.90
33077;DHT22;38790;51.964;5.924;2022-12-10T03:41:38;-2.50;99.90
33077;DHT22;38790;51.964;5.924;2022-12-10T03:44:04;-2.50;99.90
33077;DHT22;38790;51.964;5.924;2022-12-10T03:46:31;-2.50;99.90
33077;DHT22;38790;51.964;5.924;2022-12-10T03:48:58;-2.50;99.90
33077;DHT22;38790;51.964;5.924;2022-12-10T03:51:25;-2.50;99.90
33077;DHT22;38790;51.964;5.924;2022-12-10T03:53:51;-2.60;99.90
33077;DHT22;38790;51.964;5.924;2022-12-10T03:56:18;-2.60;99.90
33077;DHT22;38790;51.964;5.924;2022-12-10T03:58:45;-2.60;99.90
33077;DHT22;38790;51.964;5.924;2022-12-10T04:01:11;-2.50;99.90
33077;DHT22;38790;51.964;5.924;2022-12-10T04:03:39;-2.60;99.90
33077;DHT22;38790;51.964;5.924;2022-12-10T04:06:08;-2.60;99.90
33077;DHT22;38790;51.964;5.924;2022-12-10T04:08:34;-2.60;99.90
33077;DHT22;38790;51.964;5.924;2022-12-10T04:11:05;-2.60;99.90
33077;DHT22;38790;51.964;5.924;2022-12-10T04:13:33;-2.60;99.90
33077;DHT22;38790;51.964;5.924;2022-12-10T04:16:18;-2.60;99.90
33077;DHT22;38790;51.964;5.924;2022-12-10T04:18:56;-2.60;99.90
33077;DHT22;38790;51.964;5.924;2022-12-10T04:21:22;-2.60;99.90
33077;DHT22;38790;51.964;5.924;2022-12-10T04:24:11;-2.70;99.90
33077;DHT22;38790;51.964;5.924;2022-12-10T04:26:58;-2.70;99.90
33077;DHT22;38790;51.964;5.924;2022-12-10T04:29:30;-2.60;99.90
33077;DHT22;38790;51.964;5.924;2022-12-10T04:31:56;-2.50;99.90
33077;DHT22;38790;51.964;5.924;2022-12-10T04:34:24;-2.50;99.90
33077;DHT22;38790;51.964;5.924;2022-12-10T04:36:50;-2.40;99.90
33077;DHT22;38790;51.964;5.924;2022-12-10T04:39:17;-2.30;99.90
33077;DHT22;38790;51.964;5.924;2022-12-10T04:41:45;-2.30;99.90
33077;DHT22;38790;51.964;5.924;2022-12-10T04:44:12;-2.20;99.90
33077;DHT22;38790;51.964;5.924;2022-12-10T04:46:38;-2.20;99.90
33077;DHT22;38790;51.964;5.924;2022-12-10T04:49:05;-2.20;99.90
33077;DHT22;38790;51.964;5.924;2022-12-10T04:51:32;-2.20;99.90
33077;DHT22;38790;51.964;5.924;2022-12-10T04:53:58;-2.20;99.90
33077;DHT22;38790;51.964;5.924;2022-12-10T04:56:25;-2.20;99.90
33077;DHT22;38790;51.964;5.924;2022-12-10T04:58:51;-2.10;99.90
33077;DHT22;38790;51.964;5.924;2022-12-10T05:01:17;-2.10;99.90
33077;DHT22;38790;51.964;5.924;2022-12-10T05:03:46;-2.10;99.90
33077;DHT22;38790;51.964;5.924;2022-12-10T05:06:14;-2.10;99.90
33077;DHT22;38790;51.964;5.924;2022-12-10T05:08:41;-2.00;99.90
33077;DHT22;38790;51.964;5.924;2022-12-10T05:11:10;-2.00;99.90
33077;DHT22;38790;51.964;5.924;2022-12-10T05:13:37;-2.00;99.90
33077;DHT22;38790;51.964;5.924;2022-12-10T05:16:05;-2.00;99.90
33077;DHT22;38790;51.964;5.924;2022-12-10T05:18:32;-2.00;99.90
33077;DHT22;38790;51.964;5.924;2022-12-10T05:21:00;-2.00;99.90
33077;DHT22;38790;51.964;5.924;2022-12-10T05:23:26;-2.10;99.90
33077;DHT22;38790;51.964;5.924;2022-12-10T05:26:00;-2.00;99.90
33077;DHT22;38790;51.964;5.924;2022-12-10T05:28:27;-2.10;99.90
33077;DHT22;38790;51.964;5.924;2022-12-10T05:30:53;-2.10;99.90
33077;DHT22;38790;51.964;5.924;2022-12-10T05:33:19;-2.00;99.90
33077;DHT22;38790;51.964;5.924;2022-12-10T05:35:59;-2.00;99.90
33077;DHT22;38790;51.964;5.924;2022-12-10T05:38:27;-2.00;99.90
33077;DHT22;38790;51.964;5.924;2022-12-10T05:40:54;-2.00;99.90
33077;DHT22;38790;51.964;5.924;2022-12-10T05:43:21;-2.00;99.90
33077;DHT22;38790;51.964;5.924;2022-12-10T05:45:47;-2.00;99.90
33077;DHT22;38790;51.964;5.924;2022-12-10T05:48:14;-2.00;99.90
33077;DHT22;38790;51.964;5.924;2022-12-10T05:50:41;-2.00;99.90
33077;DHT22;38790;51.964;5.924;2022-12-10T05:53:07;-2.00;99.90
33077;DHT22;38790;51.964;5.924;2022-12-10T05:55:34;-2.00;99.90
33077;DHT22;38790;51.964;5.924;2022-12-10T05:58:00;-2.00;99.90
33077;DHT22;38790;51.964;5.924;2022-12-10T06:00:27;-1.90;99.90
33077;DHT22;38790;51.964;5.924;2022-12-10T06:02:54;-2.00;99.90
33077;DHT22;38790;51.964;5.924;2022-12-10T06:05:20;-2.00;99.90
33077;DHT22;38790;51.964;5.924;2022-12-10T06:07:47;-2.10;99.90
33077;DHT22;38790;51.964;5.924;2022-12-10T06:10:13;-2.10;99.90
33077;DHT22;38790;51.964;5.924;2022-12-10T06:12:39;-2.10;99.90
33077;DHT22;38790;51.964;5.924;2022-12-10T06:15:05;-2.10;99.90
33077;DHT22;38790;51.964;5.924;2022-12-10T06:17:32;-2.10;99.90
33077;DHT22;38790;51.964;5.924;2022-12-10T06:19:58;-2.10;99.90
33077;DHT22;38790;51.964;5.924;2022-12-10T06:22:24;-2.10;99.90
33077;DHT22;38790;51.964;5.924;2022-12-10T06:24:50;-2.10;99.90
33077;DHT22;38790;51.964;5.924;2022-12-10T06:27:16;-2.10;99.90
33077;DHT22;38790;51.964;5.924;2022-12-10T06:29:43;-2.10;99.90
33077;DHT22;38790;51.964;5.924;2022-12-10T06:32:10;-2.20;99.90
33077;DHT22;38790;51.964;5.924;2022-12-10T06:34:36;-2.20;99.90
33077;DHT22;38790;51.964;5.924;2022-12-10T06:37:02;-2.20;99.90
33077;DHT22;38790;51.964;5.924;2022-12-10T06:39:28;-2.20;99.90
33077;DHT22;38790;51.964;5.924;2022-12-10T06:41:54;-2.20;99.90
33077;DHT22;38790;51.964;5.924;2022-12-10T06:44:20;-2.20;99.90
33077;DHT22;38790;51.964;5.924;2022-12-10T06:46:46;-2.20;99.90
33077;DHT22;38790;51.964;5.924;2022-12-10T06:49:12;-2.20;99.90
33077;DHT22;38790;51.964;5.924;2022-12-10T06:51:38;-2.20;99.90
33077;DHT22;38790;51.964;5.924;2022-12-10T06:54:05;-2.20;99.90
33077;DHT22;38790;51.964;5.924;2022-12-10T06:56:31;-2.20;99.90
33077;DHT22;38790;51.964;5.924;2022-12-10T06:58:57;-2.10;99.90
33077;DHT22;38790;51.964;5.924;2022-12-10T07:01:24;-2.10;99.90
33077;DHT22;38790;51.964;5.924;2022-12-10T07:03:55;-2.20;99.90
33077;DHT22;38790;51.964;5.924;2022-12-10T07:06:23;-2.30;99.90
33077;DHT22;38790;51.964;5.924;2022-12-10T07:08:50;-2.30;99.90
33077;DHT22;38790;51.964;5.924;2022-12-10T07:11:19;-2.30;99.90
33077;DHT22;38790;51.964;5.924;2022-12-10T07:13:46;-2.20;99.90
33077;DHT22;38790;51.964;5.924;2022-12-10T07:16:32;-2.20;99.90
33077;DHT22;38790;51.964;5.924;2022-12-10T07:19:00;-2.20;99.90
33077;DHT22;38790;51.964;5.924;2022-12-10T07:21:32;-2.10;99.90
33077;DHT22;38790;51.964;5.924;2022-12-10T07:24:02;-2.10;99.90
33077;DHT22;38790;51.964;5.924;2022-12-10T07:26:30;-2.20;99.90
33077;DHT22;38790;51.964;5.924;2022-12-10T07:28:58;-2.10;99.90
33077;DHT22;38790;51.964;5.924;2022-12-10T07:31:25;-2.10;99.90
33077;DHT22;38790;51.964;5.924;2022-12-10T07:33:53;-2.10;99.90
33077;DHT22;38790;51.964;5.924;2022-12-10T07:36:21;-2.00;99.90
33077;DHT22;38790;51.964;5.924;2022-12-10T07:38:49;-2.00;99.90
33077;DHT22;38790;51.964;5.924;2022-12-10T07:41:15;-2.00;99.90
33077;DHT22;38790;51.964;5.924;2022-12-10T07:43:42;-2.00;99.90
33077;DHT22;38790;51.964;5.924;2022-12-10T07:46:13;-2.10;99.90
33077;DHT22;38790;51.964;5.924;2022-12-10T07:48:42;-2.20;99.90
33077;DHT22;38790;51.964;5.924;2022-12-10T07:51:09;-2.20;99.90
33077;DHT22;38790;51.964;5.924;2022-12-10T07:53:36;-2.20;99.90
33077;DHT22;38790;51.964;5.924;2022-12-10T07:56:02;-2.20;99.90
33077;DHT22;38790;51.964;5.924;2022-12-10T07:58:29;-2.20;99.90
33077;DHT22;38790;51.964;5.924;2022-12-10T08:00:56;-2.10;99.90
33077;DHT22;38790;51.964;5.924;2022-12-10T08:03:22;-2.00;99.90
33077;DHT22;38790;51.964;5.924;2022-12-10T08:06:03;-2.10;99.90
33077;DHT22;38790;51.964;5.924;2022-12-10T08:08:30;-2.10;99.90
33077;DHT22;38790;51.964;5.924;2022-12-10T08:10:59;-2.00;99.90
33077;DHT22;38790;51.964;5.924;2022-12-10T08:13:26;-2.00;99.90
33077;DHT22;38790;51.964;5.924;2022-12-10T08:15:52;-1.90;99.90
33077;DHT22;38790;51.964;5.924;2022-12-10T08:18:20;-1.90;99.90
33077;DHT22;38790;51.964;5.924;2022-12-10T08:20:46;-1.90;99.90
33077;DHT22;38790;51.964;5.924;2022-12-10T08:23:12;-1.90;99.90
33077;DHT22;38790;51.964;5.924;2022-12-10T08:25:39;-1.80;99.90
33077;DHT22;38790;51.964;5.924;2022-12-10T08:28:05;-1.80;99.90
33077;DHT22;38790;51.964;5.924;2022-12-10T08:30:31;-1.80;99.90
33077;DHT22;38790;51.964;5.924;2022-12-10T08:32:57;-1.80;99.90
33077;DHT22;38790;51.964;5.924;2022-12-10T08:35:23;-1.80;99.90
33077;DHT22;38790;51.964;5.924;2022-12-10T08:37:49;-1.70;99.90
33077;DHT22;38790;51.964;5.924;2022-12-10T08:40:16;-1.70;99.90
33077;DHT22;38790;51.964;5.924;2022-12-10T08:42:42;-1.70;99.90
33077;DHT22;38790;51.964;5.924;2022-12-10T08:45:08;-1.70;99.90
33077;DHT22;38790;51.964;5.924;2022-12-10T08:47:35;-1.60;99.90
33077;DHT22;38790;51.964;5.924;2022-12-10T08:50:01;-1.60;99.90
33077;DHT22;38790;51.964;5.924;2022-12-10T08:52:27;-1.60;99.90
33077;DHT22;38790;51.964;5.924;2022-12-10T08:54:55;-1.60;99.90
33077;DHT22;38790;51.964;5.924;2022-12-10T08:57:21;-1.60;99.90
33077;DHT22;38790;51.964;5.924;2022-12-10T08:59:47;-1.60;99.90
33077;DHT22;38790;51.964;5.924;2022-12-10T09:02:13;-1.60;99.90
33077;DHT22;38790;51.964;5.924;2022-12-10T09:04:39;-1.60;99.90
33077;DHT22;38790;51.964;5.924;2022-12-10T09:07:05;-1.60;99.90
33077;DHT22;38790;51.964;5.924;2022-12-10T09:09:31;-1.60;99.90
33077;DHT22;38790;51.964;5.924;2022-12-10T09:11:58;-1.60;99.90
33077;DHT22;38790;51.964;5.924;2022-12-10T09:14:24;-1.50;99.90
33077;DHT22;38790;51.964;5.924;2022-12-10T09:16:50;-1.50;99.90
33077;DHT22;38790;51.964;5.924;2022-12-10T09:19:16;-1.50;99.90
33077;DHT22;38790;51.964;5.924;2022-12-10T09:21:42;-1.50;99.90
33077;DHT22;38790;51.964;5.924;2022-12-10T09:24:09;-1.50;99.90
33077;DHT22;38790;51.964;5.924;2022-12-10T09:26:35;-1.50;99.90
33077;DHT22;38790;51.964;5.924;2022-12-10T09:29:01;-1.40;99.90
33077;DHT22;38790;51.964;5.924;2022-12-10T09:31:27;-1.40;99.90
33077;DHT22;38790;51.964;5.924;2022-12-10T09:33:54;-1.40;99.90
33077;DHT22;38790;51.964;5.924;2022-12-10T09:36:21;-1.30;99.90
33077;DHT22;38790;51.964;5.924;2022-12-10T09:38:48;-1.30;99.90
33077;DHT22;38790;51.964;5.924;2022-12-10T09:41:39;-1.30;99.90
33077;DHT22;38790;51.964;5.924;2022-12-10T09:46:55;-1.30;99.90
33077;DHT22;38790;51.964;5.924;2022-12-10T09:52:21;-1.20;99.90
33077;DHT22;38790;51.964;5.924;2022-12-10T09:57:41;-1.10;99.90
33077;DHT22;38790;51.964;5.924;2022-12-10T10:02:44;-1.10;99.90
33077;DHT22;38790;51.964;5.924;2022-12-10T10:05:16;-1.00;99.90
33077;DHT22;38790;51.964;5.924;2022-12-10T10:07:48;-1.00;99.90
33077;DHT22;38790;51.964;5.924;2022-12-10T10:10:24;-1.00;99.90
33077;DHT22;38790;51.964;5.924;2022-12-10T10:12:53;-1.00;99.90
33077;DHT22;38790;51.964;5.924;2022-12-10T10:15:32;-1.00;99.90
33077;DHT22;38790;51.964;5.924;2022-12-10T10:18:03;-1.00;99.90
33077;DHT22;38790;51.964;5.924;2022-12-10T10:20:31;-1.00;99.90
33077;DHT22;38790;51.964;5.924;2022-12-10T10:22:59;-1.00;99.90
33077;DHT22;38790;51.964;5.924;2022-12-10T10:25:27;-1.00;99.90
33077;DHT22;38790;51.964;5.924;2022-12-10T10:27:53;-1.00;99.90
33077;DHT22;38790;51.964;5.924;2022-12-10T10:30:22;-1.00;99.90
33077;DHT22;38790;51.964;5.924;2022-12-10T10:32:55;-1.00;99.90
33077;DHT22;38790;51.964;5.924;2022-12-10T10:35:31;-1.10;99.90
33077;DHT22;38790;51.964;5.924;2022-12-10T10:38:13;-1.00;99.90
33077;DHT22;38790;51.964;5.924;2022-12-10T10:40:42;-1.00;99.90
33077;DHT22;38790;51.964;5.924;2022-12-10T10:43:31;-0.90;99.90
33077;DHT22;38790;51.964;5.924;2022-12-10T10:46:23;-0.90;99.90
33077;DHT22;38790;51.964;5.924;2022-12-10T10:48:49;-0.80;99.90
33077;DHT22;38790;51.964;5.924;2022-12-10T10:51:21;-0.80;99.90
33077;DHT22;38790;51.964;5.924;2022-12-10T10:53:53;-0.80;99.90
33077;DHT22;38790;51.964;5.924;2022-12-10T10:58:55;-0.70;99.90
33077;DHT22;38790;51.964;5.924;2022-12-10T11:01:23;-0.70;99.90
33077;DHT22;38790;51.964;5.924;2022-12-10T11:03:55;-0.70;99.90
33077;DHT22;38790;51.964;5.924;2022-12-10T11:06:22;-0.60;99.90
33077;DHT22;38790;51.964;5.924;2022-12-10T11:08:50;-0.70;99.90
33077;DHT22;38790;51.964;5.924;2022-12-10T11:11:20;-0.60;99.90
33077;DHT22;38790;51.964;5.924;2022-12-10T11:13:48;-0.60;99.90
33077;DHT22;38790;51.964;5.924;2022-12-10T11:16:22;-0.60;99.90
33077;DHT22;38790;51.964;5.924;2022-12-10T11:21:20;-0.60;99.90
33077;DHT22;38790;51.964;5.924;2022-12-10T11:23:51;-0.50;99.90
33077;DHT22;38790;51.964;5.924;2022-12-10T11:26:26;-0.60;99.90
33077;DHT22;38790;51.964;5.924;2022-12-10T11:37:57;-0.50;99.90
33077;DHT22;38790;51.964;5.924;2022-12-10T11:46:25;-0.40;99.90
33077;DHT22;38790;51.964;5.924;2022-12-10T11:49:18;-0.40;99.90
33077;DHT22;38790;51.964;5.924;2022-12-10T11:52:20;-0.40;99.90
33077;DHT22;38790;51.964;5.924;2022-12-10T11:55:22;-0.50;99.90
33077;DHT22;38790;51.964;5.924;2022-12-10T11:57:54;-0.50;99.90
33077;DHT22;38790;51.964;5.924;2022-12-10T12:00:24;-0.50;99.90
33077;DHT22;38790;51.964;5.924;2022-12-10T12:06:14;-0.50;99.90
33077;DHT22;38790;51.964;5.924;2022-12-10T12:08:56;-0.60;99.90
33077;DHT22;38790;51.964;5.924;2022-12-10T12:14:50;-0.60;99.90
33077;DHT22;38790;51.964;5.924;2022-12-10T12:17:30;-0.50;99.90
33077;DHT22;38790;51.964;5.924;2022-12-10T12:20:13;-0.50;99.90
33077;DHT22;38790;51.964;5.924;2022-12-10T12:22:47;-0.50;99.90
33077;DHT22;38790;51.964;5.924;2022-12-10T12:25:26;-0.50;99.90
33077;DHT22;38790;51.964;5.924;2022-12-10T12:27:58;-0.50;99.90
33077;DHT22;38790;51.964;5.924;2022-12-10T12:30:25;-0.40;99.90
33077;DHT22;38790;51.964;5.924;2022-12-10T12:33:04;-0.30;99.90
33077;DHT22;38790;51.964;5.924;2022-12-10T12:35:48;-0.30;99.90
33077;DHT22;38790;51.964;5.924;2022-12-10T12:38:21;-0.30;99.90
33077;DHT22;38790;51.964;5.924;2022-12-10T12:40:54;-0.40;99.90
33077;DHT22;38790;51.964;5.924;2022-12-10T12:43:28;-0.40;99.90
33077;DHT22;38790;51.964;5.924;2022-12-10T12:45:57;-0.40;99.90
33077;DHT22;38790;51.964;5.924;2022-12-10T12:48:36;-0.40;99.90
33077;DHT22;38790;51.964;5.924;2022-12-10T12:51:12;-0.50;99.90
33077;DHT22;38790;51.964;5.924;2022-12-10T12:53:40;-0.50;99.90
33077;DHT22;38790;51.964;5.924;2022-12-10T13:01:40;-0.60;99.90
33077;DHT22;38790;51.964;5.924;2022-12-10T13:04:08;-0.50;99.90
33077;DHT22;38790;51.964;5.924;2022-12-10T13:06:39;-0.50;99.90
33077;DHT22;38790;51.964;5.924;2022-12-10T13:11:46;-0.50;99.90
33077;DHT22;38790;51.964;5.924;2022-12-10T13:14:33;-0.50;99.90
33077;DHT22;38790;51.964;5.924;2022-12-10T13:17:37;-0.40;99.90
33077;DHT22;38790;51.964;5.924;2022-12-10T13:23:00;-0.40;99.90
33077;DHT22;38790;51.964;5.924;2022-12-10T13:36:35;-0.60;99.90
33077;DHT22;38790;51.964;5.924;2022-12-10T13:41:32;-0.50;99.90
33077;DHT22;38790;51.964;5.924;2022-12-10T13:45:27;-0.60;99.90
33077;DHT22;38790;51.964;5.924;2022-12-10T13:47:43;-0.60;99.90
33077;DHT22;38790;51.964;5.924;2022-12-10T13:50:42;-0.60;99.90
33077;DHT22;38790;51.964;5.924;2022-12-10T13:55:55;-0.60;99.90
33077;DHT22;38790;51.964;5.924;2022-12-10T14:01:09;-0.50;99.90
33077;DHT22;38790;51.964;5.924;2022-12-10T14:04:20;-0.50;99.90
33077;DHT22;38790;51.964;5.924;2022-12-10T14:06:52;-0.50;99.90
33077;DHT22;38790;51.964;5.924;2022-12-10T14:09:23;-0.60;99.90
33077;DHT22;38790;51.964;5.924;2022-12-10T14:12:13;-0.60;99.90
33077;DHT22;38790;51.964;5.924;2022-12-10T14:14:47;-0.60;99.90
33077;DHT22;38790;51.964;5.924;2022-12-10T14:17:24;-0.60;99.90
33077;DHT22;38790;51.964;5.924;2022-12-10T14:19:53;-0.60;99.90
33077;DHT22;38790;51.964;5.924;2022-12-10T14:22:38;-0.60;99.90
33077;DHT22;38790;51.964;5.924;2022-12-10T14:25:15;-0.50;99.90
33077;DHT22;38790;51.964;5.924;2022-12-10T14:27:43;-0.60;99.90
33077;DHT22;38790;51.964;5.924;2022-12-10T14:30:20;-0.60;99.90
33077;DHT22;38790;51.964;5.924;2022-12-10T14:32:46;-0.60;99.90
33077;DHT22;38790;51.964;5.924;2022-12-10T14:35:16;-0.60;99.90
33077;DHT22;38790;51.964;5.924;2022-12-10T14:37:44;-0.60;99.90
33077;DHT22;38790;51.964;5.924;2022-12-10T14:43:19;-0.60;99.90
33077;DHT22;38790;51.964;5.924;2022-12-10T14:45:54;-0.60;99.90
33077;DHT22;38790;51.964;5.924;2022-12-10T14:48:23;-0.60;99.90
33077;DHT22;38790;51.964;5.924;2022-12-10T14:50:50;-0.60;99.90
33077;DHT22;38790;51.964;5.924;2022-12-10T14:53:18;-0.70;99.90
33077;DHT22;38790;51.964;5.924;2022-12-10T14:55:46;-0.70;99.90
33077;DHT22;38790;51.964;5.924;2022-12-10T14:58:27;-0.70;99.90
33077;DHT22;38790;51.964;5.924;2022-12-10T15:00:56;-0.70;99.90
33077;DHT22;38790;51.964;5.924;2022-12-10T15:03:29;-0.70;99.90
33077;DHT22;38790;51.964;5.924;2022-12-10T15:06:01;-0.60;99.90
33077;DHT22;38790;51.964;5.924;2022-12-10T15:08:29;-0.60;99.90
33077;DHT22;38790;51.964;5.924;2022-12-10T15:10:57;-0.70;99.90
33077;DHT22;38790;51.964;5.924;2022-12-10T15:13:27;-0.70;99.90
33077;DHT22;38790;51.964;5.924;2022-12-10T15:15:55;-0.70;99.90
33077;DHT22;38790;51.964;5.924;2022-12-10T15:18:33;-0.70;99.90
33077;DHT22;38790;51.964;5.924;2022-12-10T15:21:23;-0.80;99.90
33077;DHT22;38790;51.964;5.924;2022-12-10T15:23:50;-0.80;99.90
33077;DHT22;38790;51.964;5.924;2022-12-10T15:26:22;-0.80;99.90
33077;DHT22;38790;51.964;5.924;2022-12-10T15:28:50;-0.80;99.90
33077;DHT22;38790;51.964;5.924;2022-12-10T15:36:28;-0.70;99.90
33077;DHT22;38790;51.964;5.924;2022-12-10T15:38:55;-0.70;99.90
33077;DHT22;38790;51.964;5.924;2022-12-10T15:44:05;-0.70;99.90
33077;DHT22;38790;51.964;5.924;2022-12-10T15:46:32;-0.70;99.90
33077;DHT22;38790;51.964;5.924;2022-12-10T15:48:58;-0.70;99.90
33077;DHT22;38790;51.964;5.924;2022-12-10T15:51:24;-0.70;99.90
33077;DHT22;38790;51.964;5.924;2022-12-10T15:53:51;-0.70;99.90
33077;DHT22;38790;51.964;5.924;2022-12-10T15:56:17;-0.80;99.90
33077;DHT22;38790;51.964;5.924;2022-12-10T15:58:43;-0.80;99.90
33077;DHT22;38790;51.964;5.924;2022-12-10T16:01:13;-0.80;99.90
33077;DHT22;38790;51.964;5.924;2022-12-10T16:03:39;-0.80;99.90
33077;DHT22;38790;51.964;5.924;2022-12-10T16:06:07;-0.80;99.90
33077;DHT22;38790;51.964;5.924;2022-12-10T16:08:33;-0.80;99.90
33077;DHT22;38790;51.964;5.924;2022-12-10T16:11:06;-0.80;99.90
33077;DHT22;38790;51.964;5.924;2022-12-10T16:13:37;-0.80;99.90
33077;DHT22;38790;51.964;5.924;2022-12-10T16:16:07;-0.70;99.90
33077;DHT22;38790;51.964;5.924;2022-12-10T16:18:35;-0.80;99.90
33077;DHT22;38790;51.964;5.924;2022-12-10T16:21:05;-0.80;99.90
33077;DHT22;38790;51.964;5.924;2022-12-10T16:23:33;-0.70;99.90
33077;DHT22;38790;51.964;5.924;2022-12-10T16:25:59;-0.70;99.90
33077;DHT22;38790;51.964;5.924;2022-12-10T16:28:25;-0.70;99.90
33077;DHT22;38790;51.964;5.924;2022-12-10T16:30:57;-0.70;99.90
33077;DHT22;38790;51.964;5.924;2022-12-10T16:33:25;-0.70;99.90
33077;DHT22;38790;51.964;5.924;2022-12-10T16:35:52;-0.80;99.90
33077;DHT22;38790;51.964;5.924;2022-12-10T16:38:19;-0.80;99.90
33077;DHT22;38790;51.964;5.924;2022-12-10T16:40:47;-0.70;99.90
33077;DHT22;38790;51.964;5.924;2022-12-10T16:43:20;-0.70;99.90
33077;DHT22;38790;51.964;5.924;2022-12-10T16:45:47;-0.70;99.90
33077;DHT22;38790;51.964;5.924;2022-12-10T16:48:13;-0.70;99.90
33077;DHT22;38790;51.964;5.924;2022-12-10T16:50:41;-0.70;99.90
33077;DHT22;38790;51.964;5.924;2022-12-10T16:53:25;-0.60;99.90
33077;DHT22;38790;51.964;5.924;2022-12-10T16:55:52;-0.60;99.90
33077;DHT22;38790;51.964;5.924;2022-12-10T16:58:19;-0.60;99.90
33077;DHT22;38790;51.964;5.924;2022-12-10T17:00:47;-0.60;99.90
33077;DHT22;38790;51.964;5.924;2022-12-10T17:03:19;-0.60;99.90
33077;DHT22;38790;51.964;5.924;2022-12-10T17:05:50;-0.60;99.90
33077;DHT22;38790;51.964;5.924;2022-12-10T17:08:17;-0.60;99.90
33077;DHT22;38790;51.964;5.924;2022-12-10T17:10:44;-0.60;99.90
33077;DHT22;38790;51.964;5.924;2022-12-10T17:13:29;-0.60;99.90
33077;DHT22;38790;51.964;5.924;2022-12-10T17:15:55;-0.60;99.90
33077;DHT22;38790;51.964;5.924;2022-12-10T17:18:22;-0.60;99.90
33077;DHT22;38790;51.964;5.924;2022-12-10T17:20:49;-0.60;99.90
33077;DHT22;38790;51.964;5.924;2022-12-10T17:23:16;-0.70;99.90
33077;DHT22;38790;51.964;5.924;2022-12-10T17:25:43;-0.70;99.90
33077;DHT22;38790;51.964;5.924;2022-12-10T17:28:15;-0.70;99.90
33077;DHT22;38790;51.964;5.924;2022-12-10T17:30:43;-0.70;99.90
33077;DHT22;38790;51.964;5.924;2022-12-10T17:33:13;-0.70;99.90